ADDS METAR Data INFO
IDs: Format: Raw Decoded Include TAF

Data at: 1935 UTC 19 Jul 2018

KMBL 191856Z AUTO 26008KT 10SM BKN060 28/14 A2996 RMK AO2 SLP162 T02780139
KMBL 191756Z AUTO 20009G14KT 10SM FEW055 27/14 A2998 RMK AO2 SLP170 T02670139 10267 20111 56016
KMBL 191656Z AUTO 14006KT 10SM CLR 26/13 A2999 RMK AO2 SLP172 T02560128
KMBL 191556Z AUTO 10006KT 9SM CLR 23/12 A3001 RMK AO2 SLP179 T02330117
KMBL 191456Z AUTO 13007KT 10SM CLR 22/12 A3003 RMK AO2 SLP187 T02170117 58008
KMBL 191356Z AUTO 10004KT 10SM CLR 19/14 A3004 RMK AO2 SLP190 T01890139
KMBL 191256Z AUTO 11003KT 10SM CLR 14/12 A3005 RMK AO2 SLP195 T01390122
KMBL 191156Z AUTO 10006KT 10SM CLR 11/11 A3005 RMK AO2 SLP195 60000 T01110106 10111 20067 58001
KMBL 191056Z AUTO 09006KT 10SM CLR 09/09 A3006 RMK AO2 SLP199 T00890089
KMBL 191041Z AUTO 09006KT 3SM BR CLR 08/08 A3006 RMK AO2
KMBL 191031Z AUTO 09005KT 1 3/4SM BR CLR 07/07 A3006 RMK AO2 VIS 3/4V5
KMBL 190956Z AUTO 10004KT 3SM BR CLR 08/07 A3006 RMK AO2 SLP198 T00780072
KMBL 190856Z AUTO 10004KT 9SM CLR 08/08 A3006 RMK AO2 RAE13 SLP197 P0000 60000 T00830083 55001
KMBL 190816Z AUTO 10005KT 10SM CLR 09/09 A3006 RMK AO2 RAE13 P0000
KMBL 190809Z AUTO 10004KT 2SM -RA BR CLR 09/09 A3006 RMK AO2 P0000
KMBL 190807Z AUTO 09004KT 1SM -RA BR CLR 09/08 A3005 RMK AO2 P0000 TSNO
KMBL 190804Z AUTO 09005KT 1/2SM -RA FG CLR 08/08 A3005 RMK AO2 P0000
KMBL 190756Z AUTO 09005KT 3/4SM -RA BR CLR 08/08 A3005 RMK AO2 SLP196 P0000 T00780078
KMBL 190751Z AUTO 09005KT 1 3/4SM -RA BR CLR 08/08 A3006 RMK AO2 VIS 3/4V5 P0000
KMBL 190746Z AUTO 09004KT 3SM BR FEW002 07/07 A3006 RMK AO2 RAE43 P0000
KMBL 190738Z AUTO 09004KT 1 1/4SM -RA BR FEW002 07/07 A3006 RMK AO2 P0000
KMBL 190714Z AUTO 00000KT 3/4SM -RA BR CLR 08/08 A3006 RMK AO2 P0000
KMBL 190711Z AUTO 00000KT 1 1/4SM -RA BR CLR 08/08 A3006 RMK AO2 P0000
KMBL 190659Z AUTO 00000KT 1SM -RA BR VV002 08/08 A3006 RMK AO2 P0000
KMBL 190656Z AUTO 10003KT 2SM -RA BR SCT002 08/08 A3006 RMK AO2 RAE0557B13 SLP198 P0000 T00830078
KMBL 190637Z AUTO 00000KT 3SM -RA BR SCT002 09/08 A3006 RMK AO2 RAE0557B13 P0000
KMBL 190635Z AUTO 00000KT 1SM -RA BR VV002 09/09 A3006 RMK AO2 RAE0557B13 P0000
KMBL 190631Z AUTO 06003KT 1/2SM -RA FG VV002 09/09 A3006 RMK AO2 RAE0557B13 P0000
KMBL 190626Z AUTO 00000KT 1/4SM -RA FG CLR 08/08 A3006 RMK AO2 RAE0557B13 P0000
KMBL 190614Z AUTO 00000KT 1/2SM -RA FG CLR 09/09 A3006 RMK AO2 RAE0557B13 P0000
KMBL 190603Z AUTO 00000KT 1SM BR CLR 09/09 A3006 RMK AO2 VIS 1/4V5 RAE0557
KMBL 190556Z AUTO 00000KT 1 1/4SM -RA BR CLR 09/08 A3006 RMK AO2 RAB09 SLP199 P0000 60000 T00890083 10206 20083 53001
KMBL 190553Z AUTO 00000KT 1 1/4SM -RA BR CLR 08/08 A3006 RMK AO2 RAB09 P0000
KMBL 190543Z AUTO 00000KT 3/4SM -RA BR CLR 10/09 A3006 RMK AO2 VIS 1/4V5 RAB09 P0000
KMBL 190531Z AUTO 00000KT 1 1/4SM -RA BR CLR 09/09 A3006 RMK AO2 VIS 1/2V2 1/2 RAB09 P0000
KMBL 190526Z AUTO 09003KT 3/4SM -RA BR CLR 10/09 A3005 RMK AO2 VIS 1/4V2 1/2 RAB09 P0000
KMBL 190521Z AUTO 00000KT 1/4SM -RA FG CLR 11/11 A3005 RMK AO2 RAB09 P0000
KMBL 190513Z AUTO 00000KT 1/2SM -RA FG CLR 11/10 A3005 RMK AO2 RAB09 P0000
KMBL 190511Z AUTO 00000KT 1SM -RA BR CLR 11/11 A3005 RMK AO2 RAB09 P0000
KMBL 190456Z AUTO 13003KT 5SM BR CLR 11/10 A3005 RMK AO2 RAE50 SLP193 P0000 T01060100
KMBL 190447Z AUTO 10004KT 4SM -RA BR CLR 11/10 A3005 RMK AO2 P0000
KMBL 190418Z AUTO 07003KT 4SM -RA BR CLR 12/11 A3005 RMK AO2 P0000
KMBL 190416Z AUTO 07004KT 3/4SM -RA BR CLR 11/11 A3005 RMK AO2 P0000
KMBL 190408Z AUTO 10003KT 1/4SM -RA FG CLR 11/11 A3005 RMK AO2 P0000
KMBL 190404Z AUTO 11003KT 3/4SM -RA BR CLR 11/11 A3006 RMK AO2 P0000
KMBL 190401Z AUTO 10003KT 1 3/4SM -RA BR CLR 11/11 A3006 RMK AO2 P0000
KMBL 190356Z AUTO 10003KT 6SM -RA BR CLR 12/11 A3006 RMK AO2 RAE05B35 SLP195 P0000 T01170111 402330067
KMBL 190352Z AUTO 12003KT 3SM -RA BR CLR 12/11 A3006 RMK AO2 RAE05B35 P0000 402330067
KMBL 190350Z AUTO 14003KT 1SM -RA BR CLR 11/11 A3006 RMK AO2 RAE05B35 P0000 402330067
KMBL 190341Z AUTO 10003KT 1/2SM -RA FG CLR 11/11 A3006 RMK AO2 RAE05B35 P0000
KMBL 190338Z AUTO 10003KT 1SM -RA BR CLR 12/11 A3006 RMK AO2 VIS 1/2V5 RAE05B35 P0000
KMBL 190302Z AUTO 07003KT 4SM -RA BR CLR 12/12 A3006 RMK AO2 P0000
KMBL 190256Z AUTO 08004KT 1 1/4SM -RA BR CLR 13/13 A3006 RMK AO2 VIS 3/4V5 RAB44 SLP197 P0000 60000 T01280128 55004
KMBL 190247Z AUTO 00000KT 1 3/4SM -RA BR CLR 13/13 A3006 RMK AO2 VIS 3/4V5 RAB44 P0000
KMBL 190156Z AUTO 00000KT 10SM CLR 15/13 A3005 RMK AO2 SLP195 T01500133
KMBL 190056Z AUTO 28003KT 10SM CLR 18/14 A3007 RMK AO2 SLP199 T01830144
KMBL 182356Z AUTO 30006KT 10SM CLR 21/13 A3007 RMK AO2 SLP203 T02110133 10233 20211 56009
KMBL 182256Z AUTO 31006KT 10SM CLR 22/13 A3008 RMK AO2 SLP206 T02170133
KMBL 182156Z AUTO 33007KT 10SM CLR 23/13 A3009 RMK AO2 SLP208 T02280133
KMBL 182056Z AUTO 29010KT 10SM CLR 22/13 A3010 RMK AO2 SLP213 T02220128 58006
KMBL 181956Z AUTO 31010KT 10SM CLR 23/13 A3011 RMK AO2 SLP214 T02280128
KMBL 181856Z AUTO 32008G14KT 10SM CLR 23/14 A3012 RMK AO2 SLP219 T02280139
KMBL 181756Z AUTO 31010KT 10SM CLR 23/13 A3012 RMK AO2 SLP217 T02280133 10233 20106 58009
KMBL 181656Z AUTO VRB06KT 10SM CLR 22/13 A3013 RMK AO2 SLP221 T02220128
KMBL 181556Z AUTO VRB03KT 10SM CLR 22/12 A3014 RMK AO2 SLP226 T02220122
KMBL 181456Z AUTO VRB03KT 10SM CLR 20/12 A3015 RMK AO2 SLP227 T02000117 58006
KMBL 181356Z AUTO 01003KT 10SM CLR 19/13 A3017 RMK AO2 SLP232 T01890128
KMBL 181256Z AUTO 00000KT 10SM CLR 14/12 A3017 RMK AO2 SLP234 T01440122
KMBL 181156Z AUTO 10003KT 10SM CLR 10/10 A3016 RMK AO2 SLP234 60000 T01000100 10106 20067 51007
KMBL 181121Z AUTO 09003KT 10SM CLR 08/08 A3016 RMK AO2
KMBL 181114Z AUTO 10003KT 2 1/2SM BR CLR 08/08 A3016 RMK AO2
KMBL 181112Z AUTO 10003KT 3/4SM BR CLR 08/08 A3016 RMK AO2
KMBL 181108Z AUTO 09003KT 1/4SM FG CLR 08/07 A3016 RMK AO2
KMBL 181056Z AUTO 00000KT 1/2SM FG CLR 07/07 A3016 RMK AO2 SLP234 T00720067
KMBL 181051Z AUTO 00000KT 1/2SM FG CLR 07/07 A3016 RMK AO2
KMBL 181047Z AUTO 00000KT 3/4SM BR VV001 07/07 A3016 RMK AO2
KMBL 181041Z AUTO 00000KT 1 1/2SM BR SCT001 07/07 A3016 RMK AO2 VIS 1/2V5
KMBL 181038Z AUTO 00000KT 3/4SM BR VV001 07/07 A3016 RMK AO2 VIS 1/4V5
KMBL 181030Z AUTO 00000KT 1/4SM FG BKN001 07/07 A3016 RMK AO2
KMBL 181004Z AUTO 00000KT 1/2SM FG VV001 07/07 A3015 RMK AO2
KMBL 181000Z AUTO 00000KT 3/4SM BR CLR 07/07 A3015 RMK AO2
KMBL 180956Z AUTO 00000KT 1 1/4SM BR CLR 07/07 A3015 RMK AO2 SLP230 T00720072
KMBL 180941Z AUTO 00000KT 4SM BR CLR 08/08 A3015 RMK AO2
KMBL 180939Z AUTO 00000KT 1 1/4SM BR CLR 08/08 A3015 RMK AO2 VIS 1/4V5
KMBL 180932Z AUTO 00000KT 3/4SM BR CLR 08/07 A3015 RMK AO2
KMBL 180930Z AUTO 00000KT 1 1/4SM BR CLR 08/07 A3015 RMK AO2
KMBL 180856Z AUTO 00000KT 10SM CLR 08/07 A3014 RMK AO2 RAE0755 SLP227 P0000 60000 T00780072 53004
KMBL 180832Z AUTO 00000KT 4SM BR CLR 08/08 A3014 RMK AO2 RAE0755 P0000
KMBL 180822Z AUTO 00000KT 1 1/2SM BR CLR 08/08 A3014 RMK AO2 VIS 1/2V5 RAE0755 P0000
KMBL 180759Z AUTO 00000KT 10SM CLR 08/08 A3014 RMK AO2 RAE55 P0000
KMBL 180751Z AUTO 00000KT 2SM -RA BR CLR 09/09 A3014 RMK AO2 RAE07B44 SLP225 P0000 T00890089
KMBL 180750Z AUTO 00000KT 2SM -RA BR CLR 09/09 A3014 RMK AO2 RAE07B44 P0000
KMBL 180744Z AUTO 00000KT 1SM -RA BR CLR 09/09 A3013 RMK AO2 VIS 1/2V5 RAE07B44 P0000
KMBL 180736Z AUTO 00000KT 1/2SM FG CLR 09/08 A3013 RMK AO2 RAE07 P0000